Time;durP1;ratioP1;P1;durP2;ratioP2;P2;SDS_P1;SDS_P2;PMS_P1;PMS_P2;Temp;Humidity;BMP_temperature;BMP_pressure;BME280_temperature;BME280_humidity;BME280_pressure;Samples;Min_cycle;Max_cycle;Signal;HPM_P1;HPM_P2
2023/05/28 00:09:05;;;;;;;11.60;6.10;;;;;;;;;;5028481;28;20053;-77
2023/05/28 00:12:16;;;;;;;;;;;;;;;;;;;;;
2023/05/28 00:15:31;;;;;;;12.65;6.57;;;;;;;;;;5051412;28;20029;-79
2023/05/28 00:18:16;;;;;;;;;;;;;;;;;;;;;
2023/05/28 00:21:06;;;;;;;11.32;5.93;;;;;;;;;;5054714;28;20277;-79
2023/05/28 00:45:41;;;;;;;;;;;;;;;;;;;;;
2023/05/28 00:48:41;;;;;;;15.48;5.95;;;;;;;;;;4954799;28;20033;-78
2023/05/28 00:51:10;;;;;;;12.70;5.55;;;;;;;;;;5028945;28;20127;-78
2023/05/28 00:53:58;;;;;;;14.18;6.43;;;;;;;;;;5039778;28;20032;-79
2023/05/28 00:56:43;;;;;;;11.00;6.00;;;;;;;;;;5040059;28;20033;-79
2023/05/28 00:59:40;;;;;;;14.70;5.13;;;;;;;;;;5058363;28;20088;-78
2023/05/28 01:02:05;;;;;;;12.70;5.68;;;;;;;;;;5057377;28;20086;-77
2023/05/28 01:04:36;;;;;;;13.57;6.90;;;;;;;;;;5057707;28;20472;-79
2023/05/28 01:07:09;;;;;;;16.80;7.53;;;;;;;;;;5056647;28;20377;-77
2023/05/28 01:09:37;;;;;;;16.73;7.30;;;;;;;;;;5058383;28;20036;-78
2023/05/28 01:12:07;;;;;;;22.27;10.15;;;;;;;;;;5055696;28;20025;-77
2023/05/28 01:14:37;;;;;;;18.80;9.50;;;;;;;;;;5055367;28;20044;-77
2023/05/28 01:17:06;;;;;;;13.55;6.65;;;;;;;;;;5057281;28;20020;-77
2023/05/28 01:20:13;;;;;;;13.27;5.93;;;;;;;;;;5056236;28;20025;-79
2023/05/28 02:10:30;;;;;;;10.70;4.03;;;;;;;;;;5054331;28;20106;-77
2023/05/28 02:49:56;;;;;;;13.17;4.93;;;;;;;;;;5059968;28;20044;-78
2023/05/28 02:52:21;;;;;;;10.00;4.40;;;;;;;;;;5034784;28;20270;-78
2023/05/28 02:54:47;;;;;;;10.63;4.65;;;;;;;;;;5055229;28;20087;-78
2023/05/28 03:04:16;;;;;;;;;;;;;;;;;;;;;
2023/05/28 03:06:58;;;;;;;8.80;3.97;;;;;;;;;;5015856;28;20037;-78
2023/05/28 03:09:46;;;;;;;;;;;;;;;;;;;;;
2023/05/28 03:12:11;;;;;;;8.18;3.85;;;;;;;;;;5057857;28;20469;-78
2023/05/28 03:14:36;;;;;;;9.77;4.60;;;;;;;;;;5039629;28;20108;-78
2023/05/28 03:17:02;;;;;;;8.70;4.18;;;;;;;;;;5057484;28;20372;-78
2023/05/28 03:19:27;;;;;;;8.00;4.10;;;;;;;;;;5057686;28;20035;-78
2023/05/28 03:21:52;;;;;;;6.67;4.03;;;;;;;;;;5058744;28;20047;-78
2023/05/28 03:24:17;;;;;;;9.47;4.60;;;;;;;;;;5058528;28;20622;-78
2023/05/28 03:26:43;;;;;;;9.98;4.20;;;;;;;;;;5058439;28;20657;-78
2023/05/28 03:29:08;;;;;;;9.45;4.07;;;;;;;;;;5042088;28;20530;-78
2023/05/28 03:31:43;;;;;;;7.65;4.28;;;;;;;;;;5056771;28;20049;-78
2023/05/28 03:34:08;;;;;;;8.07;4.25;;;;;;;;;;5056986;28;20056;-78
2023/05/28 03:36:34;;;;;;;9.47;4.57;;;;;;;;;;5057382;28;20037;-78
2023/05/28 03:38:59;;;;;;;9.40;4.40;;;;;;;;;;5056076;28;20676;-77
2023/05/28 03:41:25;;;;;;;12.15;4.50;;;;;;;;;;5056065;28;20055;-78
2023/05/28 03:43:50;;;;;;;10.30;4.25;;;;;;;;;;5058212;28;20028;-77
2023/05/28 03:46:15;;;;;;;7.10;3.80;;;;;;;;;;5056498;28;20037;-77
2023/05/28 03:48:41;;;;;;;5.72;3.42;;;;;;;;;;5038439;28;20273;-78
2023/05/28 03:51:06;;;;;;;7.90;4.10;;;;;;;;;;5055334;28;20555;-78
2023/05/28 03:53:31;;;;;;;9.55;3.90;;;;;;;;;;5057047;28;20021;-77
2023/05/28 03:55:57;;;;;;;7.78;3.90;;;;;;;;;;5056400;28;20025;-78
2023/05/28 03:58:22;;;;;;;8.47;4.13;;;;;;;;;;5058307;28;20056;-79
2023/05/28 04:00:47;;;;;;;9.73;3.67;;;;;;;;;;5041262;28;20304;-77
2023/05/28 04:03:12;;;;;;;6.83;3.60;;;;;;;;;;5039718;28;20028;-78
2023/05/28 04:05:38;;;;;;;10.38;4.25;;;;;;;;;;5038800;28;20274;-78
2023/05/28 04:08:03;;;;;;;8.30;3.67;;;;;;;;;;5058890;28;20060;-78
2023/05/28 04:10:28;;;;;;;6.35;3.63;;;;;;;;;;5039706;28;20261;-77
2023/05/28 04:12:54;;;;;;;6.63;3.90;;;;;;;;;;5056186;28;20369;-78
2023/05/28 04:15:20;;;;;;;8.13;3.78;;;;;;;;;;5054534;28;20258;-77
2023/05/28 04:17:45;;;;;;;7.55;3.65;;;;;;;;;;5055541;28;20032;-77
2023/05/28 04:20:12;;;;;;;10.77;4.03;;;;;;;;;;5057925;28;20029;-78
2023/05/28 04:22:37;;;;;;;6.82;3.60;;;;;;;;;;5057851;28;20024;-78
2023/05/28 04:25:02;;;;;;;8.07;3.92;;;;;;;;;;5059362;28;20033;-78
2023/05/28 04:27:28;;;;;;;9.25;3.28;;;;;;;;;;5040405;28;20021;-78
2023/05/28 04:29:54;;;;;;;6.88;3.63;;;;;;;;;;5059631;28;20075;-78
2023/05/28 04:32:20;;;;;;;7.80;3.78;;;;;;;;;;5056904;28;20083;-78
2023/05/28 04:34:45;;;;;;;11.02;3.75;;;;;;;;;;5056119;28;20021;-77
2023/05/28 04:37:10;;;;;;;9.07;4.17;;;;;;;;;;5056655;28;20039;-79
2023/05/28 04:39:37;;;;;;;7.75;3.78;;;;;;;;;;5055163;28;20266;-78
2023/05/28 04:42:03;;;;;;;6.43;3.72;;;;;;;;;;5057954;28;20449;-79
2023/05/28 04:44:30;;;;;;;6.95;3.78;;;;;;;;;;5040763;28;20026;-78
2023/05/28 04:46:58;;;;;;;9.18;4.13;;;;;;;;;;5057082;28;20044;-77
2023/05/28 04:49:24;;;;;;;10.45;4.22;;;;;;;;;;5058402;28;20476;-79
2023/05/28 04:51:49;;;;;;;11.60;3.78;;;;;;;;;;5058345;28;20039;-78
2023/05/28 04:54:14;;;;;;;9.25;3.40;;;;;;;;;;5057801;28;20091;-78
2023/05/28 04:56:39;;;;;;;11.20;4.00;;;;;;;;;;5057208;28;20025;-77
2023/05/28 04:59:09;;;;;;;13.70;3.90;;;;;;;;;;5057272;28;20045;-77
2023/05/28 05:01:34;;;;;;;8.02;3.60;;;;;;;;;;5055770;28;20266;-78
2023/05/28 05:04:00;;;;;;;10.97;3.77;;;;;;;;;;5057356;28;20032;-77
2023/05/28 05:06:25;;;;;;;12.18;4.00;;;;;;;;;;5055970;28;20262;-77
2023/05/28 05:08:50;;;;;;;7.65;3.78;;;;;;;;;;5055488;28;20029;-78
2023/05/28 05:11:15;;;;;;;8.35;3.70;;;;;;;;;;5055673;28;20048;-78
2023/05/28 05:13:41;;;;;;;8.00;3.70;;;;;;;;;;5056247;28;20023;-78
2023/05/28 05:16:06;;;;;;;11.13;4.10;;;;;;;;;;5057030;28;20262;-78
2023/05/28 05:18:31;;;;;;;10.35;3.80;;;;;;;;;;5057549;28;20282;-78
2023/05/28 05:20:57;;;;;;;7.97;3.50;;;;;;;;;;5056672;28;20080;-78
2023/05/28 05:23:22;;;;;;;11.80;3.72;;;;;;;;;;5038395;28;20302;-78
2023/05/28 05:25:47;;;;;;;8.13;3.90;;;;;;;;;;5038604;28;20025;-79
2023/05/28 05:28:13;;;;;;;9.05;3.83;;;;;;;;;;5055195;28;20020;-78
2023/05/28 05:30:38;;;;;;;12.32;3.55;;;;;;;;;;5057766;28;20103;-77
2023/05/28 05:33:03;;;;;;;10.67;3.90;;;;;;;;;;5053400;28;20025;-78
2023/05/28 05:35:29;;;;;;;10.80;3.95;;;;;;;;;;5038093;28;20258;-78
2023/05/28 05:37:54;;;;;;;7.60;3.72;;;;;;;;;;5056258;28;20044;-78
2023/05/28 05:40:19;;;;;;;9.73;4.07;;;;;;;;;;5055570;28;20032;-78
2023/05/28 05:42:44;;;;;;;9.52;3.60;;;;;;;;;;5055231;28;20278;-78
2023/05/28 05:45:10;;;;;;;7.77;3.47;;;;;;;;;;5055231;28;20035;-77
2023/05/28 05:47:35;;;;;;;8.57;3.58;;;;;;;;;;5055144;28;20292;-79
2023/05/28 05:50:03;;;;;;;8.02;3.70;;;;;;;;;;5037731;28;20448;-78
2023/05/28 05:52:28;;;;;;;5.88;3.40;;;;;;;;;;5037910;28;20025;-78
2023/05/28 05:54:53;;;;;;;8.33;3.50;;;;;;;;;;5053754;28;20033;-78
2023/05/28 05:57:18;;;;;;;6.10;3.35;;;;;;;;;;5056504;28;20258;-77
2023/05/28 05:59:43;;;;;;;7.70;3.33;;;;;;;;;;5056684;28;20017;-78
2023/05/28 06:02:09;;;;;;;7.17;3.50;;;;;;;;;;5057613;28;20447;-78
2023/05/28 06:04:34;;;;;;;7.10;3.43;;;;;;;;;;5058140;28;20765;-78
2023/05/28 06:07:04;;;;;;;6.30;3.50;;;;;;;;;;5059374;28;20810;-79
2023/05/28 06:09:30;;;;;;;7.10;3.30;;;;;;;;;;5059712;28;20025;-79
2023/05/28 06:11:56;;;;;;;6.40;2.90;;;;;;;;;;5058035;28;20032;-78
2023/05/28 06:14:21;;;;;;;6.53;3.50;;;;;;;;;;5057921;28;20412;-77
2023/05/28 06:16:46;;;;;;;6.22;2.90;;;;;;;;;;5040227;28;20737;-79
2023/05/28 06:19:11;;;;;;;11.82;3.40;;;;;;;;;;5056588;28;20072;-78
2023/05/28 06:21:36;;;;;;;7.30;3.30;;;;;;;;;;5057541;28;20025;-78
2023/05/28 06:24:03;;;;;;;9.13;3.63;;;;;;;;;;5055602;28;20285;-80
2023/05/28 06:26:28;;;;;;;8.70;3.30;;;;;;;;;;5038672;28;20779;-78
2023/05/28 06:28:54;;;;;;;9.18;3.70;;;;;;;;;;5056325;28;20033;-77
2023/05/28 06:31:19;;;;;;;8.82;3.13;;;;;;;;;;5056656;28;20143;-78
2023/05/28 06:33:45;;;;;;;11.65;3.15;;;;;;;;;;5056821;28;20389;-79
2023/05/28 06:36:11;;;;;;;9.77;3.80;;;;;;;;;;5057271;28;20032;-79
2023/05/28 06:38:36;;;;;;;7.22;3.55;;;;;;;;;;5056257;28;20407;-78
2023/05/28 06:41:04;;;;;;;10.07;3.80;;;;;;;;;;5039448;28;20028;-78
2023/05/28 06:43:30;;;;;;;4.85;3.10;;;;;;;;;;5057419;28;20284;-80
2023/05/28 06:45:55;;;;;;;6.80;3.50;;;;;;;;;;5057440;28;20088;-79
2023/05/28 06:48:20;;;;;;;12.50;3.88;;;;;;;;;;5057666;28;20032;-79
2023/05/28 06:50:46;;;;;;;9.30;3.67;;;;;;;;;;5057003;28;20071;-78
2023/05/28 06:53:11;;;;;;;7.80;3.30;;;;;;;;;;5056409;28;20046;-79
2023/05/28 06:55:37;;;;;;;8.23;3.33;;;;;;;;;;5056225;28;20289;-78
2023/05/28 06:58:02;;;;;;;9.63;3.20;;;;;;;;;;5056256;28;20021;-78
2023/05/28 07:00:28;;;;;;;7.80;3.17;;;;;;;;;;5056729;28;20053;-79
2023/05/28 07:02:53;;;;;;;6.93;3.17;;;;;;;;;;5055807;28;20028;-76
2023/05/28 07:05:18;;;;;;;7.47;3.20;;;;;;;;;;5053449;28;20273;-80
2023/05/28 07:07:43;;;;;;;8.50;3.20;;;;;;;;;;5054919;28;20261;-79
2023/05/28 07:10:09;;;;;;;7.47;3.08;;;;;;;;;;5053264;28;20021;-78
2023/05/28 07:12:35;;;;;;;8.88;3.15;;;;;;;;;;5055091;28;20029;-79
2023/05/28 07:15:00;;;;;;;9.10;3.50;;;;;;;;;;5037528;28;20033;-77
2023/05/28 07:17:26;;;;;;;7.07;3.38;;;;;;;;;;5052947;28;20021;-79
2023/05/28 07:19:51;;;;;;;8.93;3.30;;;;;;;;;;5053311;28;20032;-78
2023/05/28 07:22:16;;;;;;;6.73;3.40;;;;;;;;;;5055091;28;20756;-78
2023/05/28 07:24:41;;;;;;;10.20;3.30;;;;;;;;;;5054445;28;20704;-78
2023/05/28 07:27:07;;;;;;;7.10;3.47;;;;;;;;;;5053767;28;20056;-76
2023/05/28 07:29:32;;;;;;;7.32;3.33;;;;;;;;;;5054623;28;20258;-78
2023/05/28 07:31:58;;;;;;;8.05;3.10;;;;;;;;;;5055239;28;20025;-78
2023/05/28 07:34:23;;;;;;;7.22;3.45;;;;;;;;;;5057661;28;20163;-78
2023/05/28 07:36:48;;;;;;;8.55;3.10;;;;;;;;;;5059074;28;20025;-81
2023/05/28 07:39:14;;;;;;;9.20;3.43;;;;;;;;;;5043545;28;20028;-78
2023/05/28 07:41:39;;;;;;;7.35;2.80;;;;;;;;;;5042909;28;20266;-80
2023/05/28 07:44:06;;;;;;;8.80;3.10;;;;;;;;;;5061688;28;20444;-80
2023/05/28 07:46:31;;;;;;;9.48;3.20;;;;;;;;;;5044346;28;20278;-78
2023/05/28 07:48:56;;;;;;;6.72;3.22;;;;;;;;;;5059972;28;20369;-78
2023/05/28 07:51:21;;;;;;;6.03;3.30;;;;;;;;;;5054455;28;20415;-79
2023/05/28 07:53:47;;;;;;;7.40;3.10;;;;;;;;;;5052546;28;20068;-77
2023/05/28 07:56:12;;;;;;;8.15;3.05;;;;;;;;;;5053057;28;20333;-79
2023/05/28 07:58:38;;;;;;;7.70;3.28;;;;;;;;;;5038249;28;20399;-80
2023/05/28 08:01:08;;;;;;;7.90;3.20;;;;;;;;;;5057918;28;20432;-78
2023/05/28 08:03:34;;;;;;;7.60;3.45;;;;;;;;;;5057905;28;20280;-79
2023/05/28 08:05:59;;;;;;;6.47;3.38;;;;;;;;;;5058069;28;20020;-80
2023/05/28 08:08:25;;;;;;;6.25;2.70;;;;;;;;;;5039552;28;20112;-78
2023/05/28 08:10:50;;;;;;;10.17;3.10;;;;;;;;;;5039747;28;20068;-79
2023/05/28 08:13:15;;;;;;;5.85;3.33;;;;;;;;;;5039005;28;20281;-78
2023/05/28 08:15:41;;;;;;;7.23;2.87;;;;;;;;;;5056746;28;20033;-78
2023/05/28 08:18:06;;;;;;;9.97;3.30;;;;;;;;;;5039109;28;20268;-78
2023/05/28 08:20:31;;;;;;;8.63;2.70;;;;;;;;;;5057814;28;20346;-78
2023/05/28 08:22:56;;;;;;;7.13;2.80;;;;;;;;;;5057134;28;20286;-80
2023/05/28 08:25:21;;;;;;;8.27;2.70;;;;;;;;;;5057248;28;20261;-79
2023/05/28 08:27:47;;;;;;;5.00;2.50;;;;;;;;;;5057486;28;20262;-77
2023/05/28 08:30:13;;;;;;;6.18;2.42;;;;;;;;;;5057519;28;20254;-78
2023/05/28 08:32:38;;;;;;;6.90;2.83;;;;;;;;;;5057502;28;20025;-78
2023/05/28 08:35:04;;;;;;;8.80;2.80;;;;;;;;;;5056694;28;20055;-78
2023/05/28 08:37:29;;;;;;;6.07;2.40;;;;;;;;;;5038695;28;20439;-77
2023/05/28 08:39:55;;;;;;;5.68;2.38;;;;;;;;;;5057340;28;20025;-85
2023/05/28 08:42:20;;;;;;;5.68;2.58;;;;;;;;;;5040885;28;20484;-77
2023/05/28 08:44:46;;;;;;;7.82;2.72;;;;;;;;;;5058885;28;20060;-80
2023/05/28 08:47:12;;;;;;;7.07;2.35;;;;;;;;;;5058550;28;20051;-79
2023/05/28 08:49:45;;;;;;;6.40;2.30;;;;;;;;;;5061647;28;20088;-79
2023/05/28 08:52:12;;;;;;;7.60;3.50;;;;;;;;;;5059289;28;20391;-79
2023/05/28 08:54:38;;;;;;;6.38;2.42;;;;;;;;;;5058033;28;20028;-78
2023/05/28 08:57:05;;;;;;;5.38;2.22;;;;;;;;;;5021699;28;20039;-79
2023/05/28 08:59:31;;;;;;;10.88;5.57;;;;;;;;;;5058540;28;20115;-82
2023/05/28 09:04:31;;;;;;;9.45;2.60;;;;;;;;;;5096526;28;20168;-81
2023/05/28 09:07:05;;;;;;;4.97;2.35;;;;;;;;;;5107393;28;20028;-86
2023/05/28 09:09:37;;;;;;;3.83;2.10;;;;;;;;;;5099855;28;20514;-84
2023/05/28 09:14:40;;;;;;;6.32;2.10;;;;;;;;;;4898174;22;20057;-81
2023/05/28 09:17:08;;;;;;;7.10;2.05;;;;;;;;;;5062962;28;20025;-81
2023/05/28 09:19:34;;;;;;;4.15;1.90;;;;;;;;;;5066129;28;20013;-81
2023/05/28 09:22:13;;;;;;;5.20;2.03;;;;;;;;;;5043771;28;20087;-85
2023/05/28 09:25:04;;;;;;;8.65;2.40;;;;;;;;;;5065353;28;20046;-81
2023/05/28 09:27:29;;;;;;;6.03;2.50;;;;;;;;;;5048858;28;20574;-77
2023/05/28 09:29:55;;;;;;;3.88;2.00;;;;;;;;;;5055078;28;20076;-78
2023/05/28 09:32:20;;;;;;;6.03;2.17;;;;;;;;;;5055196;28;20025;-77
2023/05/28 09:34:56;;;;;;;5.10;2.00;;;;;;;;;;5065190;28;20017;-79
2023/05/28 09:37:21;;;;;;;5.93;2.03;;;;;;;;;;5060315;28;20036;-78
2023/05/28 09:39:46;;;;;;;7.82;1.92;;;;;;;;;;5056852;28;20455;-78
2023/05/28 09:42:15;;;;;;;5.73;1.90;;;;;;;;;;5057160;28;20040;-80
2023/05/28 09:44:42;;;;;;;5.32;2.03;;;;;;;;;;5055585;28;20689;-79
2023/05/28 09:47:21;;;;;;;24.10;4.15;;;;;;;;;;5057759;28;20033;-79
2023/05/28 09:49:47;;;;;;;5.47;2.25;;;;;;;;;;5038390;28;20032;-80
2023/05/28 09:52:19;;;;;;;3.45;1.85;;;;;;;;;;5057251;28;20104;-80
2023/05/28 09:54:55;;;;;;;3.75;1.90;;;;;;;;;;5038641;28;20135;-80
2023/05/28 09:57:27;;;;;;;6.97;1.85;;;;;;;;;;5057807;28;20045;-81
2023/05/28 09:59:54;;;;;;;6.32;2.15;;;;;;;;;;5058507;28;20057;-81
2023/05/28 10:02:46;;;;;;;6.22;2.10;;;;;;;;;;5057963;28;20017;-81
2023/05/28 10:05:16;;;;;;;4.75;1.85;;;;;;;;;;5057931;28;20059;-81
2023/05/28 10:07:44;;;;;;;5.43;2.10;;;;;;;;;;5039414;28;20032;-80
2023/05/28 10:10:12;;;;;;;3.88;1.90;;;;;;;;;;5057754;28;20044;-82
2023/05/28 10:12:38;;;;;;;3.78;1.85;;;;;;;;;;5058002;28;20020;-79
2023/05/28 10:15:04;;;;;;;4.68;1.77;;;;;;;;;;5058301;28;20032;-81
2023/05/28 10:17:29;;;;;;;5.93;2.08;;;;;;;;;;5059501;28;20108;-81
2023/05/28 10:19:55;;;;;;;4.20;1.90;;;;;;;;;;5058085;28;20082;-80
2023/05/28 10:22:20;;;;;;;4.90;2.17;;;;;;;;;;5059150;28;20143;-82
2023/05/28 10:24:46;;;;;;;3.13;1.70;;;;;;;;;;5057705;28;20274;-80
2023/05/28 10:27:15;;;;;;;3.75;1.80;;;;;;;;;;5056756;28;20048;-79
2023/05/28 10:29:42;;;;;;;5.75;1.90;;;;;;;;;;5057476;28;20040;-78
2023/05/28 10:32:07;;;;;;;6.30;3.30;;;;;;;;;;5057736;28;20090;-80
2023/05/28 10:34:35;;;;;;;5.00;2.58;;;;;;;;;;5057312;28;20476;-78
2023/05/28 10:37:04;;;;;;;4.50;1.95;;;;;;;;;;5057390;28;20578;-78
2023/05/28 10:39:43;;;;;;;6.57;1.90;;;;;;;;;;5038529;28;20067;-79
2023/05/28 10:42:10;;;;;;;4.45;2.25;;;;;;;;;;5038989;28;20457;-79
2023/05/28 10:45:09;;;;;;;4.40;1.83;;;;;;;;;;5056735;28;20454;-78
2023/05/28 10:48:02;;;;;;;3.92;1.88;;;;;;;;;;5057723;28;20067;-78
2023/05/28 10:50:27;;;;;;;5.32;2.40;;;;;;;;;;5034830;28;20043;-79
2023/05/28 10:53:12;;;;;;;5.50;2.03;;;;;;;;;;5056541;28;20052;-79
2023/05/28 10:55:53;;;;;;;4.60;2.20;;;;;;;;;;5055644;28;20029;-78
2023/05/28 10:58:42;;;;;;;4.10;2.03;;;;;;;;;;5056583;28;20021;-77
2023/05/28 11:01:11;;;;;;;7.18;2.20;;;;;;;;;;5057855;28;20448;-82
2023/05/28 11:03:40;;;;;;;8.73;2.30;;;;;;;;;;5056209;28;20515;-80
2023/05/28 11:06:07;;;;;;;4.10;1.77;;;;;;;;;;5038777;28;20116;-79
2023/05/28 11:08:36;;;;;;;6.60;2.10;;;;;;;;;;5056431;28;20029;-80
2023/05/28 11:11:02;;;;;;;5.53;2.03;;;;;;;;;;5056823;28;20484;-81
2023/05/28 11:13:27;;;;;;;5.78;1.90;;;;;;;;;;5056898;28;20025;-80
2023/05/28 11:15:52;;;;;;;8.80;2.10;;;;;;;;;;5057360;28;20075;-79
2023/05/28 11:18:18;;;;;;;3.40;1.93;;;;;;;;;;5057140;28;20029;-81
2023/05/28 11:20:43;;;;;;;6.43;2.00;;;;;;;;;;5056632;28;20250;-80
2023/05/28 11:23:17;;;;;;;5.43;2.17;;;;;;;;;;5055902;28;20783;-80
2023/05/28 11:25:45;;;;;;;5.43;1.98;;;;;;;;;;5056655;28;20314;-80
2023/05/28 11:28:11;;;;;;;5.13;2.10;;;;;;;;;;5056226;28;20084;-80
2023/05/28 11:30:36;;;;;;;5.05;2.00;;;;;;;;;;5058332;28;20060;-81
2023/05/28 11:33:02;;;;;;;3.70;1.83;;;;;;;;;;5060302;28;20060;-80
2023/05/28 11:35:27;;;;;;;4.57;2.30;;;;;;;;;;5060540;28;20396;-80
2023/05/28 11:37:53;;;;;;;6.00;2.30;;;;;;;;;;5060158;28;20032;-81
2023/05/28 11:40:18;;;;;;;5.60;2.10;;;;;;;;;;5042037;28;20258;-81
2023/05/28 11:42:44;;;;;;;6.20;3.30;;;;;;;;;;5058441;28;20025;-80
2023/05/28 11:45:11;;;;;;;5.13;2.28;;;;;;;;;;5060172;28;20029;-80
2023/05/28 11:47:37;;;;;;;4.93;2.33;;;;;;;;;;5059722;28;20081;-80
2023/05/28 11:50:10;;;;;;;3.75;2.03;;;;;;;;;;5059972;28;20052;-80
2023/05/28 11:52:35;;;;;;;5.32;2.30;;;;;;;;;;5042122;28;20033;-81
2023/05/28 11:55:02;;;;;;;9.20;1.95;;;;;;;;;;5059418;28;20037;-81
2023/05/28 11:57:33;;;;;;;5.10;2.10;;;;;;;;;;5042199;28;20055;-79
2023/05/28 11:59:59;;;;;;;5.35;2.10;;;;;;;;;;5059618;28;20041;-80
2023/05/28 12:02:25;;;;;;;6.75;2.13;;;;;;;;;;5059047;28;20527;-81
2023/05/28 12:05:01;;;;;;;5.03;2.47;;;;;;;;;;5041224;28;20021;-80
2023/05/28 12:07:32;;;;;;;7.72;1.83;;;;;;;;;;5059529;28;20025;-81
2023/05/28 12:10:05;;;;;;;5.57;2.10;;;;;;;;;;5059168;28;20027;-81
2023/05/28 12:12:31;;;;;;;3.05;1.50;;;;;;;;;;5040491;28;20151;-81
2023/05/28 12:15:01;;;;;;;5.57;2.42;;;;;;;;;;5059724;28;20021;-81
2023/05/28 12:17:36;;;;;;;3.22;2.00;;;;;;;;;;5060096;28;20033;-81
2023/05/28 12:20:04;;;;;;;4.28;2.05;;;;;;;;;;5040917;28;20021;-80
2023/05/28 12:22:29;;;;;;;7.00;2.33;;;;;;;;;;5059071;28;20049;-80
2023/05/28 12:24:55;;;;;;;6.60;2.20;;;;;;;;;;5059056;28;20078;-80
2023/05/28 12:27:20;;;;;;;4.03;1.60;;;;;;;;;;5042227;28;20258;-81
2023/05/28 12:29:46;;;;;;;4.43;1.63;;;;;;;;;;5060340;28;20076;-81
2023/05/28 12:32:11;;;;;;;4.03;1.95;;;;;;;;;;5040996;28;20021;-80
2023/05/28 12:34:36;;;;;;;4.93;1.83;;;;;;;;;;5058901;28;20032;-80
2023/05/28 12:37:02;;;;;;;9.07;2.63;;;;;;;;;;5058606;28;20475;-79
2023/05/28 12:39:27;;;;;;;3.95;2.13;;;;;;;;;;5058484;28;20747;-80
2023/05/28 12:41:53;;;;;;;4.03;1.90;;;;;;;;;;5058097;28;20040;-80
2023/05/28 12:44:18;;;;;;;5.57;2.03;;;;;;;;;;5058216;28;20277;-80
2023/05/28 12:46:43;;;;;;;4.83;2.20;;;;;;;;;;5040028;28;20269;-79
2023/05/28 12:49:09;;;;;;;5.35;1.95;;;;;;;;;;5057700;28;20261;-80
2023/05/28 12:51:35;;;;;;;5.05;2.05;;;;;;;;;;5057234;28;20484;-80
2023/05/28 12:54:00;;;;;;;1.90;1.38;;;;;;;;;;5057485;28;20400;-79
2023/05/28 12:56:26;;;;;;;4.95;1.80;;;;;;;;;;5057576;28;20021;-79
2023/05/28 12:58:51;;;;;;;4.57;1.92;;;;;;;;;;5057833;28;20021;-79
2023/05/28 13:01:17;;;;;;;5.72;1.83;;;;;;;;;;5058029;28;20040;-80
2023/05/28 13:03:42;;;;;;;5.07;1.95;;;;;;;;;;5058364;28;20025;-80
2023/05/28 13:06:07;;;;;;;3.97;1.87;;;;;;;;;;5057741;28;20036;-80
2023/05/28 13:08:33;;;;;;;5.50;2.20;;;;;;;;;;5058508;28;20261;-78
2023/05/28 13:10:58;;;;;;;7.30;2.13;;;;;;;;;;5061631;28;20725;-79
2023/05/28 13:13:23;;;;;;;5.57;2.20;;;;;;;;;;5059494;28;20285;-78
2023/05/28 13:15:48;;;;;;;6.30;2.53;;;;;;;;;;5041342;28;20737;-79
2023/05/28 13:18:14;;;;;;;5.30;2.23;;;;;;;;;;5059817;28;20120;-79
2023/05/28 13:20:40;;;;;;;4.90;2.43;;;;;;;;;;5057537;28;20293;-80
2023/05/28 13:23:05;;;;;;;6.70;2.97;;;;;;;;;;5055919;28;20637;-78
2023/05/28 13:25:30;;;;;;;10.07;2.50;;;;;;;;;;5056422;28;20033;-79
2023/05/28 13:27:55;;;;;;;4.97;2.25;;;;;;;;;;5054881;28;20300;-78
2023/05/28 13:30:21;;;;;;;4.77;2.10;;;;;;;;;;5055600;28;20025;-79
2023/05/28 13:32:46;;;;;;;5.93;1.83;;;;;;;;;;5055267;28;20257;-80
2023/05/28 13:35:12;;;;;;;6.45;2.20;;;;;;;;;;5055657;28;20293;-79
2023/05/28 13:37:38;;;;;;;4.35;2.08;;;;;;;;;;5056108;28;20021;-79
2023/05/28 13:40:07;;;;;;;5.20;2.08;;;;;;;;;;5056310;28;20032;-79
2023/05/28 13:42:33;;;;;;;5.75;2.10;;;;;;;;;;5055660;28;20021;-79
2023/05/28 13:44:58;;;;;;;6.80;2.08;;;;;;;;;;5056390;28;20124;-80
2023/05/28 13:47:23;;;;;;;3.93;1.90;;;;;;;;;;5055885;28;20048;-79
2023/05/28 13:49:49;;;;;;;5.07;2.20;;;;;;;;;;5056514;28;20285;-80
2023/05/28 13:52:14;;;;;;;4.73;2.33;;;;;;;;;;5037853;28;20036;-79
2023/05/28 13:54:41;;;;;;;4.47;1.88;;;;;;;;;;5037829;28;20282;-82
2023/05/28 13:57:06;;;;;;;4.90;1.90;;;;;;;;;;5055473;28;20021;-79
2023/05/28 13:59:31;;;;;;;3.77;2.00;;;;;;;;;;5056230;28;20021;-80
2023/05/28 14:01:57;;;;;;;4.68;1.98;;;;;;;;;;5055527;28;20337;-80
2023/05/28 14:04:22;;;;;;;5.10;2.03;;;;;;;;;;5055549;28;20024;-81
2023/05/28 14:06:47;;;;;;;4.13;2.03;;;;;;;;;;5037349;28;20262;-80
2023/05/28 14:09:13;;;;;;;4.40;2.33;;;;;;;;;;5055694;28;20261;-80
2023/05/28 14:11:38;;;;;;;4.90;2.22;;;;;;;;;;5055891;28;20430;-81
2023/05/28 14:14:03;;;;;;;4.63;2.15;;;;;;;;;;5038319;28;20128;-80
2023/05/28 14:16:28;;;;;;;5.37;2.50;;;;;;;;;;5038755;28;20028;-80
2023/05/28 14:18:53;;;;;;;5.17;2.10;;;;;;;;;;5056658;28;20381;-81
2023/05/28 14:21:19;;;;;;;4.80;2.17;;;;;;;;;;5056665;28;20266;-82
2023/05/28 14:23:45;;;;;;;4.97;2.30;;;;;;;;;;5038693;28;20373;-80
2023/05/28 14:26:10;;;;;;;5.10;2.05;;;;;;;;;;5056871;28;20099;-81
2023/05/28 14:28:35;;;;;;;3.87;1.90;;;;;;;;;;5056192;28;20064;-81
2023/05/28 14:31:01;;;;;;;5.93;2.40;;;;;;;;;;5054948;28;20264;-81
2023/05/28 14:33:28;;;;;;;3.63;2.00;;;;;;;;;;5056059;28;20258;-80
2023/05/28 14:36:05;;;;;;;5.28;2.05;;;;;;;;;;5038018;28;20254;-81
2023/05/28 14:38:30;;;;;;;5.40;2.45;;;;;;;;;;5037240;28;20106;-81
2023/05/28 14:40:55;;;;;;;5.67;2.20;;;;;;;;;;5055823;28;20032;-81
2023/05/28 14:43:21;;;;;;;6.53;1.98;;;;;;;;;;5055898;28;20281;-80
2023/05/28 14:45:46;;;;;;;3.90;1.92;;;;;;;;;;5056569;28;20059;-81
2023/05/28 14:48:11;;;;;;;4.93;2.00;;;;;;;;;;5056048;28;20029;-81
2023/05/28 14:50:36;;;;;;;2.93;2.00;;;;;;;;;;5054996;28;20029;-80
2023/05/28 14:53:02;;;;;;;3.50;1.90;;;;;;;;;;5055897;28;20596;-81
2023/05/28 14:55:28;;;;;;;5.00;2.40;;;;;;;;;;5056124;28;20025;-79
2023/05/28 14:57:54;;;;;;;5.75;2.00;;;;;;;;;;5056185;28;20258;-80
2023/05/28 15:00:20;;;;;;;4.43;2.08;;;;;;;;;;5037261;28;20488;-78
2023/05/28 15:02:45;;;;;;;3.65;2.00;;;;;;;;;;5037572;28;20063;-81
2023/05/28 15:05:10;;;;;;;4.22;2.00;;;;;;;;;;5055702;28;20025;-80
2023/05/28 15:07:36;;;;;;;3.20;1.75;;;;;;;;;;5056479;28;20039;-81
2023/05/28 15:10:01;;;;;;;3.43;2.03;;;;;;;;;;5055713;28;20017;-79
2023/05/28 15:12:26;;;;;;;4.72;2.17;;;;;;;;;;5055440;28;20258;-80
2023/05/28 15:14:51;;;;;;;3.80;2.03;;;;;;;;;;5055451;28;20392;-80
2023/05/28 15:17:17;;;;;;;4.55;1.98;;;;;;;;;;5056733;28;20656;-79
2023/05/28 15:19:42;;;;;;;4.53;2.10;;;;;;;;;;5054564;28;20021;-80
2023/05/28 15:22:07;;;;;;;9.68;2.13;;;;;;;;;;5057515;28;20147;-79
2023/05/28 15:24:34;;;;;;;2.70;1.70;;;;;;;;;;5055468;28;20021;-78
2023/05/28 15:27:00;;;;;;;3.90;2.13;;;;;;;;;;5059177;28;20768;-80
2023/05/28 15:29:25;;;;;;;6.30;1.85;;;;;;;;;;5059839;28;20025;-78
2023/05/28 15:31:51;;;;;;;5.03;1.83;;;;;;;;;;5060537;28;20028;-78
2023/05/28 15:34:17;;;;;;;7.05;2.30;;;;;;;;;;5041535;28;20029;-80
2023/05/28 15:36:45;;;;;;;7.22;2.17;;;;;;;;;;5060359;28;20107;-81
2023/05/28 15:39:10;;;;;;;3.50;1.73;;;;;;;;;;5061785;28;20040;-78
2023/05/28 15:41:45;;;;;;;4.38;2.20;;;;;;;;;;5060292;28;20120;-80
2023/05/28 15:44:10;;;;;;;3.55;2.10;;;;;;;;;;5042538;28;20078;-80
2023/05/28 15:46:36;;;;;;;5.90;2.60;;;;;;;;;;5064097;28;20033;-83
2023/05/28 15:49:04;;;;;;;4.32;2.10;;;;;;;;;;5064665;28;20028;-82
2023/05/28 15:51:31;;;;;;;3.60;1.90;;;;;;;;;;5061929;28;20060;-81
2023/05/28 15:53:57;;;;;;;4.22;2.13;;;;;;;;;;5058401;28;20108;-81
2023/05/28 15:56:22;;;;;;;3.55;2.10;;;;;;;;;;5058790;28;20060;-81
2023/05/28 15:58:48;;;;;;;4.13;2.03;;;;;;;;;;5059150;28;20036;-81
2023/05/28 16:08:58;;;;;;;7.88;2.42;;;;;;;;;;4948539;28;20492;-80
2023/05/28 16:11:57;;;;;;;4.68;2.13;;;;;;;;;;5058059;28;20040;-80
2023/05/28 16:14:34;;;;;;;7.40;2.10;;;;;;;;;;5054788;28;20101;-82
2023/05/28 16:17:57;;;;;;;3.67;2.08;;;;;;;;;;5044905;28;20048;-80
2023/05/28 16:57:19;;;;;;;4.85;2.33;;;;;;;;;;5044039;28;20397;-82
2023/05/28 17:03:14;;;;;;;3.60;2.00;;;;;;;;;;4983626;28;20054;-79
2023/05/28 17:05:43;;;;;;;5.72;2.25;;;;;;;;;;5042539;28;20041;-80
2023/05/28 17:08:10;;;;;;;5.75;2.10;;;;;;;;;;5042662;28;20064;-81
2023/05/28 17:10:42;;;;;;;9.05;2.13;;;;;;;;;;5042275;28;20021;-80
2023/05/28 17:13:10;;;;;;;5.45;2.40;;;;;;;;;;5040067;28;20022;-81
2023/05/28 17:15:37;;;;;;;10.00;2.70;;;;;;;;;;5041715;28;20104;-80
2023/05/28 17:18:03;;;;;;;6.82;2.50;;;;;;;;;;5040076;28;20021;-81
2023/05/28 17:20:38;;;;;;;4.15;2.53;;;;;;;;;;5042720;28;20409;-80
2023/05/28 17:23:05;;;;;;;5.78;2.28;;;;;;;;;;5043401;28;20028;-79
2023/05/28 17:25:33;;;;;;;3.95;2.42;;;;;;;;;;5041926;28;20165;-81
2023/05/28 17:28:44;;;;;;;3.95;2.10;;;;;;;;;;5040968;28;20048;-80
2023/05/28 17:31:10;;;;;;;3.88;2.22;;;;;;;;;;5039982;28;20357;-78
2023/05/28 17:33:35;;;;;;;9.10;2.30;;;;;;;;;;5040639;28;20017;-85
2023/05/28 17:36:00;;;;;;;4.07;2.23;;;;;;;;;;5043675;28;20029;-79
2023/05/28 17:38:29;;;;;;;5.00;2.70;;;;;;;;;;5042669;28;20270;-77
2023/05/28 17:40:56;;;;;;;4.10;2.40;;;;;;;;;;5044914;28;20273;-79
2023/05/28 17:43:32;;;;;;;5.88;2.40;;;;;;;;;;5042657;28;20075;-80
2023/05/28 17:45:57;;;;;;;4.72;2.15;;;;;;;;;;5042897;28;20059;-79